createdAt,value
2023-01-09T00:01:35.307Z,0.81
2023-01-09T00:04:05.567Z,0.79
2023-01-09T00:06:34.280Z,0.78
2023-01-09T00:09:03.414Z,0.69
2023-01-09T00:11:32.522Z,0.63
2023-01-09T00:14:01.372Z,0.62
2023-01-09T00:16:30.372Z,0.69
2023-01-09T00:19:01.137Z,0.73
2023-01-09T00:21:29.967Z,0.79
2023-01-09T00:23:58.505Z,0.79
2023-01-09T00:26:27.444Z,0.75
2023-01-09T00:28:56.277Z,0.76
2023-01-09T00:31:24.966Z,0.79
2023-01-09T00:34:00.153Z,0.77
2023-01-09T00:36:30.296Z,0.82
2023-01-09T00:38:58.983Z,0.86
2023-01-09T00:41:30.337Z,0.91
2023-01-09T00:44:00.689Z,0.94
2023-01-09T00:46:33.309Z,0.98
2023-01-09T00:49:02.563Z,1.02
2023-01-09T00:51:36.295Z,1.04
2023-01-09T00:54:05.796Z,1.09
2023-01-09T00:56:36.404Z,1.14
2023-01-09T00:59:05.469Z,1.10
2023-01-09T01:01:36.726Z,1.08
2023-01-09T01:04:25.969Z,1.12
2023-01-09T01:07:12.814Z,1.13
2023-01-09T01:09:41.653Z,1.13
2023-01-09T01:12:10.170Z,1.17
2023-01-09T01:14:40.164Z,1.20
2023-01-09T01:17:09.352Z,1.22
2023-01-09T01:19:38.390Z,1.24
2023-01-09T01:22:08.139Z,1.28
2023-01-09T01:24:36.496Z,1.25
2023-01-09T01:27:22.497Z,1.26
2023-01-09T01:30:03.611Z,1.19
2023-01-09T01:32:32.341Z,1.25
2023-01-09T01:35:00.894Z,1.27
2023-01-09T01:37:30.636Z,1.31
2023-01-09T01:39:59.222Z,1.37
2023-01-09T01:42:27.907Z,1.40
2023-01-09T01:45:00.920Z,1.41
2023-01-09T01:47:36.850Z,1.43
2023-01-09T01:50:09.518Z,1.42
2023-01-09T01:52:39.355Z,1.37
2023-01-09T01:55:10.258Z,1.34
2023-01-09T01:57:39.655Z,1.32
2023-01-09T02:00:09.331Z,1.33
2023-01-09T02:02:38.140Z,1.33
2023-01-09T02:05:08.014Z,1.36
2023-01-09T02:07:36.534Z,1.37
2023-01-09T02:10:07.088Z,1.41
2023-01-09T02:12:35.524Z,1.43
2023-01-09T02:15:06.548Z,1.46
2023-01-09T02:18:05.696Z,1.50
2023-01-09T02:20:40.997Z,1.33
2023-01-09T02:23:49.980Z,1.52
2023-01-09T02:27:03.510Z,1.55
2023-01-09T02:30:11.829Z,1.57
2023-01-09T02:32:51.443Z,1.61
2023-01-09T02:35:28.958Z,1.60
2023-01-09T02:38:04.282Z,1.64
2023-01-09T02:40:36.525Z,1.67
2023-01-09T02:43:05.764Z,1.65
2023-01-09T02:45:34.637Z,1.60
2023-01-09T02:48:04.982Z,1.60
2023-01-09T02:50:38.734Z,1.61
2023-01-09T02:53:20.228Z,1.56
2023-01-09T02:55:57.099Z,1.53
2023-01-09T02:58:35.670Z,1.58
2023-01-09T03:01:14.092Z,1.57
2023-01-09T03:03:49.251Z,1.58
2023-01-09T03:06:23.363Z,1.59
2023-01-09T03:08:54.781Z,1.61
2023-01-09T03:11:23.639Z,1.61
2023-01-09T03:13:55.244Z,1.64
2023-01-09T03:16:26.696Z,1.64
2023-01-09T03:18:58.007Z,1.60
2023-01-09T03:21:28.044Z,1.49
2023-01-09T03:23:57.763Z,1.30
2023-01-09T03:26:32.399Z,1.52
2023-01-09T03:31:46.431Z,1.51
2023-01-09T03:34:17.904Z,1.54
2023-01-09T03:36:46.554Z,1.55
2023-01-09T03:39:15.315Z,1.57
2023-01-09T03:41:44.080Z,1.58
2023-01-09T03:44:12.774Z,1.57
2023-01-09T03:46:41.811Z,1.60
2023-01-09T03:49:11.426Z,1.63
2023-01-09T03:51:41.883Z,1.68
2023-01-09T03:54:10.384Z,1.68
2023-01-09T03:56:38.818Z,1.72
2023-01-09T03:59:07.555Z,1.73
2023-01-09T04:01:36.470Z,1.74
2023-01-09T04:04:05.423Z,1.77
2023-01-09T04:06:34.121Z,1.77
2023-01-09T04:09:04.372Z,1.76
2023-01-09T04:11:33.350Z,1.74
2023-01-09T04:14:04.206Z,1.73
2023-01-09T04:16:32.873Z,1.73
2023-01-09T04:19:01.963Z,1.75
2023-01-09T04:21:30.453Z,1.75
2023-01-09T04:23:59.305Z,1.70
2023-01-09T04:26:33.466Z,1.71
2023-01-09T04:29:01.999Z,1.66
2023-01-09T04:31:30.629Z,1.67
2023-01-09T04:34:00.459Z,1.68
2023-01-09T04:36:29.295Z,1.65
2023-01-09T04:38:57.813Z,1.66
2023-01-09T04:41:40.256Z,1.68
2023-01-09T04:44:10.433Z,1.64
2023-01-09T04:46:39.270Z,1.66
2023-01-09T04:49:07.916Z,1.66
2023-01-09T04:51:36.471Z,1.67
2023-01-09T04:54:06.199Z,1.68
2023-01-09T04:56:34.676Z,1.68
2023-01-09T04:59:03.627Z,1.70
2023-01-09T05:01:34.046Z,1.69
2023-01-09T05:04:03.311Z,1.69
2023-01-09T05:06:32.677Z,1.69
2023-01-09T05:09:01.719Z,1.70
2023-01-09T05:11:30.283Z,1.69
2023-01-09T05:13:58.993Z,1.70
2023-01-09T05:16:30.192Z,1.69
2023-01-09T05:19:00.768Z,1.68
2023-01-09T05:21:29.650Z,1.69
2023-01-09T05:23:58.796Z,1.69
2023-01-09T05:26:27.837Z,1.61
2023-01-09T05:28:57.671Z,1.63
2023-01-09T05:31:28.023Z,1.60
2023-01-09T05:33:58.442Z,1.61
2023-01-09T05:36:29.515Z,1.60
2023-01-09T05:38:58.588Z,1.60
2023-01-09T05:41:27.096Z,1.61
2023-01-09T05:43:55.759Z,1.59
2023-01-09T05:46:24.593Z,1.56
2023-01-09T05:48:53.184Z,1.53
2023-01-09T05:51:21.773Z,1.52
2023-01-09T05:53:51.782Z,1.51
2023-01-09T05:56:20.554Z,1.49
2023-01-09T05:58:48.920Z,1.49
2023-01-09T06:01:17.822Z,1.45
2023-01-09T06:03:46.376Z,1.45
2023-01-09T06:06:15.076Z,1.42
2023-01-09T06:08:43.742Z,1.37
2023-01-09T06:11:30.672Z,1.38
2023-01-09T06:13:59.398Z,1.38
2023-01-09T06:16:28.408Z,1.39
2023-01-09T06:18:56.895Z,1.37
2023-01-09T06:21:26.489Z,1.39
2023-01-09T06:23:55.246Z,1.31
2023-01-09T06:26:25.704Z,1.27
2023-01-09T06:28:55.905Z,1.31
2023-01-09T06:31:24.806Z,1.40
2023-01-09T06:33:53.581Z,1.42
2023-01-09T06:36:22.787Z,1.50
2023-01-09T06:38:51.602Z,1.55
2023-01-09T06:41:20.172Z,1.59
2023-01-09T06:43:50.110Z,1.58
2023-01-09T06:46:18.585Z,1.61
2023-01-09T06:48:47.078Z,1.64
2023-01-09T06:51:17.350Z,1.66
2023-01-09T06:53:46.667Z,1.65
2023-01-09T06:56:17.865Z,1.66
2023-01-09T06:58:46.713Z,1.69
2023-01-09T07:01:33.847Z,1.74
2023-01-09T07:04:02.689Z,1.85
2023-01-09T07:06:31.572Z,1.94
2023-01-09T07:09:59.857Z,2.03
2023-01-09T07:12:28.690Z,2.12
2023-01-09T07:14:57.717Z,2.27
2023-01-09T07:17:27.729Z,2.38
2023-01-09T07:20:18.686Z,2.43
2023-01-09T07:22:48.244Z,2.47
2023-01-09T07:25:17.209Z,2.54
2023-01-09T07:27:46.240Z,2.55
2023-01-09T07:30:18.732Z,2.60
2023-01-09T07:32:48.906Z,2.64
2023-01-09T07:35:17.603Z,2.60
2023-01-09T07:37:49.556Z,2.69
2023-01-09T07:40:18.660Z,2.70
2023-01-09T07:42:47.145Z,2.72
2023-01-09T07:45:16.090Z,2.75
2023-01-09T07:47:45.243Z,2.78
2023-01-09T07:50:17.848Z,2.77
2023-01-09T07:52:46.696Z,2.77
2023-01-09T07:55:17.554Z,2.79
2023-01-09T07:57:50.103Z,2.73
2023-01-09T08:00:21.380Z,2.75
2023-01-09T08:02:53.410Z,2.75
2023-01-09T08:05:24.001Z,2.78
2023-01-09T08:07:54.913Z,2.75
2023-01-09T08:10:26.374Z,2.76
2023-01-09T08:12:54.896Z,2.74
2023-01-09T08:15:23.849Z,2.75
2023-01-09T08:17:52.465Z,2.75
2023-01-09T08:20:21.051Z,2.73
2023-01-09T08:22:52.305Z,2.68
2023-01-09T08:25:20.640Z,2.71
2023-01-09T08:27:49.608Z,2.74
2023-01-09T08:30:19.171Z,2.75
2023-01-09T08:32:51.168Z,2.76
2023-01-09T08:35:45.477Z,2.78
2023-01-09T08:38:16.611Z,2.77
2023-01-09T08:40:48.247Z,2.84
2023-01-09T08:43:35.052Z,2.96
2023-01-09T08:46:21.321Z,3.38
2023-01-09T08:48:49.879Z,3.61
2023-01-09T08:51:19.019Z,3.87
2023-01-09T08:53:48.897Z,4.03
2023-01-09T08:56:20.507Z,4.16
2023-01-09T08:58:49.239Z,4.19
2023-01-09T09:01:18.067Z,4.31
2023-01-09T09:03:46.971Z,4.29
2023-01-09T09:06:15.825Z,4.28
2023-01-09T09:11:31.244Z,4.44
2023-01-09T09:14:00.209Z,4.35
2023-01-09T09:16:29.351Z,4.39
2023-01-09T09:19:00.057Z,4.41
2023-01-09T09:21:31.611Z,4.38
2023-01-09T09:24:00.552Z,4.33
2023-01-09T09:26:30.608Z,4.36
2023-01-09T09:28:59.180Z,4.30
2023-01-09T09:31:27.725Z,4.29
2023-01-09T09:33:56.587Z,4.23
2023-01-09T09:36:33.371Z,4.24
2023-01-09T09:39:03.059Z,4.18
2023-01-09T09:42:30.609Z,4.20
2023-01-09T09:45:08.543Z,4.22
2023-01-09T09:47:53.941Z,4.24
2023-01-09T09:51:03.938Z,4.24
2023-01-09T09:53:35.278Z,4.29
2023-01-09T09:56:05.131Z,4.05
2023-01-09T09:58:39.052Z,4.48
2023-01-09T10:01:09.644Z,4.52
2023-01-09T10:03:41.459Z,4.62
2023-01-09T10:06:17.823Z,4.57
2023-01-09T10:08:50.459Z,4.59
2023-01-09T10:11:23.790Z,4.60
2023-01-09T10:14:13.074Z,4.64
2023-01-09T10:17:03.583Z,4.74
2023-01-09T10:19:44.904Z,4.82
2023-01-09T10:22:25.079Z,4.81
2023-01-09T10:25:08.126Z,4.85
2023-01-09T10:27:44.996Z,4.90
2023-01-09T10:30:28.384Z,4.92
2023-01-09T10:33:07.841Z,5.07
2023-01-09T10:35:54.543Z,5.17
2023-01-09T10:38:27.618Z,5.16
2023-01-09T10:41:01.733Z,5.23
2023-01-09T10:43:35.199Z,5.16
2023-01-09T10:46:07.364Z,5.12
2023-01-09T10:48:37.320Z,5.22
2023-01-09T10:51:15.885Z,5.25
2023-01-09T10:58:01.292Z,5.23
2023-01-09T11:00:30.390Z,5.20
2023-01-09T11:03:01.013Z,5.17
2023-01-09T11:05:32.827Z,5.23
2023-01-09T11:08:06.136Z,5.11
2023-01-09T11:10:49.409Z,5.15
2023-01-09T11:13:22.024Z,5.24
2023-01-09T11:16:13.188Z,5.29
2023-01-09T11:18:51.089Z,5.21
2023-01-09T11:21:32.114Z,5.11
2023-01-09T11:24:35.458Z,5.22
2023-01-09T11:27:24.741Z,5.19
2023-01-09T11:30:11.601Z,5.28
2023-01-09T11:32:42.424Z,5.26
2023-01-09T11:35:20.228Z,5.38
2023-01-09T11:37:50.578Z,5.42
2023-01-09T11:40:21.588Z,5.40
2023-01-09T11:43:17.278Z,5.35
2023-01-09T11:46:00.128Z,5.38
2023-01-09T11:48:34.040Z,5.28
2023-01-09T11:51:06.928Z,5.23
2023-01-09T11:53:52.550Z,5.19
2023-01-09T11:56:20.973Z,5.13
2023-01-09T11:58:49.751Z,5.11
2023-01-09T12:01:30.119Z,5.11
2023-01-09T12:04:18.555Z,5.17
2023-01-09T12:06:58.133Z,5.25
2023-01-09T12:09:32.932Z,5.27
2023-01-09T12:12:04.008Z,5.25
2023-01-09T12:14:46.538Z,5.22
2023-01-09T12:17:36.377Z,5.40
2023-01-09T12:20:26.826Z,5.58
2023-01-09T12:23:02.506Z,5.65
2023-01-09T12:25:38.102Z,5.58
2023-01-09T12:28:32.430Z,5.59
2023-01-09T12:31:10.472Z,5.56
2023-01-09T12:33:44.531Z,5.53
2023-01-09T12:36:19.695Z,5.44
2023-01-09T12:39:01.588Z,5.36
2023-01-09T12:41:45.003Z,5.49
2023-01-09T12:44:49.716Z,5.66
2023-01-09T12:47:38.242Z,5.71
2023-01-09T12:50:18.762Z,5.79
2023-01-09T12:52:48.797Z,5.70
2023-01-09T12:55:22.029Z,5.73
2023-01-09T12:57:53.262Z,5.60
2023-01-09T13:00:25.150Z,5.61
2023-01-09T13:03:10.962Z,5.56
2023-01-09T13:05:45.147Z,5.52
2023-01-09T13:08:17.475Z,5.48
2023-01-09T13:10:49.846Z,5.44
2023-01-09T13:13:21.990Z,5.42
2023-01-09T13:15:55.127Z,5.38
2023-01-09T13:18:30.431Z,5.32
2023-01-09T13:21:00.184Z,5.29
2023-01-09T13:23:35.071Z,5.29
2023-01-09T13:26:09.740Z,5.27
2023-01-09T13:28:43.965Z,5.25
2023-01-09T13:31:43.377Z,5.27
2023-01-09T13:34:22.049Z,5.27
2023-01-09T13:36:55.390Z,5.25
2023-01-09T13:39:26.523Z,5.24
2023-01-09T13:42:16.929Z,5.24
2023-01-09T13:44:46.321Z,5.19
2023-01-09T13:47:20.915Z,5.18
2023-01-09T13:50:21.280Z,5.14
2023-01-09T13:52:50.752Z,5.13
2023-01-09T13:55:36.000Z,5.10
2023-01-09T13:58:24.185Z,5.15
2023-01-09T14:01:01.884Z,5.11
2023-01-09T14:04:14.598Z,5.14
2023-01-09T14:07:26.526Z,5.23
2023-01-09T14:10:01.853Z,5.18
2023-01-09T14:12:32.228Z,5.14
2023-01-09T14:15:03.432Z,5.12
2023-01-09T14:17:37.073Z,4.99
2023-01-09T14:20:13.726Z,5.10
2023-01-09T14:22:55.785Z,5.05
2023-01-09T14:25:28.849Z,5.05
2023-01-09T14:28:21.755Z,5.00
2023-01-09T14:31:13.857Z,4.96
2023-01-09T14:33:42.530Z,5.03
2023-01-09T14:36:15.239Z,4.97
2023-01-09T14:38:48.148Z,4.90
2023-01-09T14:41:43.624Z,4.88
2023-01-09T14:44:25.895Z,4.85
2023-01-09T14:46:57.391Z,4.79
2023-01-09T14:49:33.372Z,4.80
2023-01-09T14:52:04.809Z,4.79
2023-01-09T14:54:37.634Z,4.79
2023-01-09T14:57:24.868Z,4.79
2023-01-09T14:59:58.232Z,4.79
2023-01-09T15:02:30.315Z,4.80
2023-01-09T15:05:02.755Z,4.71
2023-01-09T15:07:34.964Z,4.67
2023-01-09T15:10:05.063Z,4.78
2023-01-09T15:12:35.808Z,4.78
2023-01-09T15:15:06.100Z,4.74
2023-01-09T15:17:38.432Z,4.71
2023-01-09T15:20:09.166Z,4.69
2023-01-09T15:22:38.630Z,4.68
2023-01-09T15:25:38.965Z,4.64
2023-01-09T15:28:32.430Z,4.64
2023-01-09T15:31:07.314Z,4.66
2023-01-09T15:33:40.304Z,4.63
2023-01-09T15:36:14.035Z,4.59
2023-01-09T15:38:43.121Z,4.58
2023-01-09T15:41:38.904Z,4.57
2023-01-09T15:44:14.680Z,4.57
2023-01-09T15:46:44.228Z,4.60
2023-01-09T15:49:15.022Z,4.60
2023-01-09T15:51:45.510Z,4.60
2023-01-09T15:54:21.801Z,4.61
2023-01-09T15:56:53.163Z,4.61
2023-01-09T15:59:29.760Z,4.60
2023-01-09T16:02:14.530Z,4.61
2023-01-09T16:04:47.053Z,4.63
2023-01-09T16:07:17.575Z,4.61
2023-01-09T16:09:47.846Z,4.59
2023-01-09T16:12:20.384Z,4.55
2023-01-09T16:14:53.129Z,4.53
2023-01-09T16:17:26.642Z,4.50
2023-01-09T16:19:58.239Z,4.41
2023-01-09T16:22:27.990Z,4.40
2023-01-09T16:24:58.870Z,4.47
2023-01-09T16:27:28.983Z,4.45
2023-01-09T16:29:59.704Z,4.46
2023-01-09T16:32:30.877Z,4.46
2023-01-09T16:35:05.421Z,4.48
2023-01-09T16:37:37.578Z,4.49
2023-01-09T16:40:27.807Z,4.47
2023-01-09T16:43:07.583Z,4.48
2023-01-09T16:45:44.956Z,4.42
2023-01-09T16:48:17.864Z,4.41
2023-01-09T16:50:47.862Z,4.40
2023-01-09T16:53:18.486Z,4.41
2023-01-09T16:55:47.811Z,4.39
2023-01-09T16:58:21.946Z,4.36
2023-01-09T17:00:53.362Z,4.35
2023-01-09T17:03:22.577Z,4.33
2023-01-09T17:05:57.687Z,4.31
2023-01-09T17:08:29.934Z,4.28
2023-01-09T17:11:01.007Z,4.12
2023-01-09T17:13:29.849Z,4.24
2023-01-09T17:15:59.453Z,4.23
2023-01-09T17:18:29.807Z,4.23
2023-01-09T17:21:00.284Z,4.20
2023-01-09T17:23:29.067Z,4.22
2023-01-09T17:26:28.775Z,4.31
2023-01-09T17:28:57.294Z,4.28
2023-01-09T17:31:26.086Z,4.30
2023-01-09T17:33:55.017Z,4.32
2023-01-09T17:36:54.022Z,4.29
2023-01-09T17:39:23.209Z,4.13
2023-01-09T17:41:52.471Z,4.29
2023-01-09T17:44:20.984Z,4.24
2023-01-09T17:47:38.882Z,4.25
2023-01-09T17:50:08.963Z,4.23
2023-01-09T17:52:38.751Z,4.25
2023-01-09T17:55:08.469Z,4.27
2023-01-09T17:57:37.087Z,4.25
2023-01-09T18:00:07.099Z,4.22
2023-01-09T18:02:36.122Z,4.20
2023-01-09T18:05:30.541Z,4.18
2023-01-09T18:08:03.309Z,4.20
2023-01-09T18:10:32.227Z,4.01
2023-01-09T18:13:00.913Z,4.19
2023-01-09T18:15:29.681Z,4.19
2023-01-09T18:17:58.254Z,4.18
2023-01-09T18:20:26.932Z,4.14
2023-01-09T18:22:57.830Z,4.15
2023-01-09T18:25:28.127Z,4.13
2023-01-09T18:28:00.686Z,4.11
2023-01-09T18:30:29.383Z,4.13
2023-01-09T18:33:00.737Z,4.10
2023-01-09T18:35:29.992Z,4.12
2023-01-09T18:38:01.018Z,4.15
2023-01-09T18:40:33.342Z,4.14
2023-01-09T18:43:05.134Z,4.05
2023-01-09T18:45:34.640Z,4.15
2023-01-09T18:48:06.587Z,3.85
2023-01-09T18:50:44.832Z,4.09
2023-01-09T18:53:16.628Z,4.10
2023-01-09T18:55:46.955Z,4.11
2023-01-09T18:58:17.924Z,4.11
2023-01-09T19:00:46.795Z,4.12
2023-01-09T19:03:17.995Z,4.13
2023-01-09T19:05:46.651Z,4.09
2023-01-09T19:08:17.493Z,4.06
2023-01-09T19:10:52.439Z,4.08
2023-01-09T19:13:21.488Z,4.06
2023-01-09T19:15:54.533Z,4.09
2023-01-09T19:18:23.837Z,4.11
2023-01-09T19:20:53.049Z,4.09
2023-01-09T19:23:27.368Z,4.13
2023-01-09T19:25:57.909Z,4.13
2023-01-09T19:28:26.717Z,4.10
2023-01-09T19:30:58.923Z,4.14
2023-01-09T19:33:27.579Z,4.16
2023-01-09T19:36:06.556Z,4.11
2023-01-09T19:38:35.219Z,4.14
2023-01-09T19:41:13.275Z,4.21
2023-01-09T19:43:41.814Z,4.15
2023-01-09T19:46:11.972Z,4.13
2023-01-09T19:48:42.655Z,3.98
2023-01-09T19:51:12.108Z,4.08
2023-01-09T19:53:41.423Z,4.04
2023-01-09T19:56:19.178Z,4.01
2023-01-09T19:58:52.075Z,3.95
2023-01-09T20:01:22.853Z,3.97
2023-01-09T20:03:52.028Z,3.95
2023-01-09T20:06:24.497Z,3.92
2023-01-09T20:08:54.755Z,3.97
2023-01-09T20:11:26.784Z,3.98
2023-01-09T20:13:56.937Z,3.98
2023-01-09T20:16:30.631Z,4.00
2023-01-09T20:19:08.013Z,3.99
2023-01-09T20:21:37.548Z,4.01
2023-01-09T20:24:09.511Z,4.05
2023-01-09T20:26:48.020Z,4.11
2023-01-09T20:29:18.305Z,4.09
2023-01-09T20:31:47.183Z,4.08
2023-01-09T20:34:16.407Z,4.10
2023-01-09T20:36:45.846Z,4.11
2023-01-09T20:39:14.803Z,4.09
2023-01-09T20:41:49.910Z,4.04
2023-01-09T20:44:18.634Z,4.04
2023-01-09T20:46:48.428Z,4.07
2023-01-09T20:49:18.729Z,4.07
2023-01-09T20:51:49.667Z,4.06
2023-01-09T20:54:21.600Z,4.07
2023-01-09T20:56:52.296Z,4.07
2023-01-09T20:59:22.541Z,4.09
2023-01-09T21:01:51.965Z,4.08
2023-01-09T21:04:20.988Z,4.08
2023-01-09T21:06:50.317Z,4.13
2023-01-09T21:09:20.503Z,4.14
2023-01-09T21:11:49.436Z,4.13
2023-01-09T21:14:20.464Z,4.15
2023-01-09T21:16:54.713Z,4.15
2023-01-09T21:19:24.807Z,4.16
2023-01-09T21:21:53.833Z,4.15
2023-01-09T21:24:24.326Z,4.13
2023-01-09T21:26:52.893Z,4.16
2023-01-09T21:29:23.022Z,4.16
2023-01-09T21:31:51.901Z,4.26
2023-01-09T21:34:21.377Z,4.24
2023-01-09T21:36:54.058Z,4.16
2023-01-09T21:39:24.705Z,4.24
2023-01-09T21:42:10.839Z,4.22
2023-01-09T21:44:58.681Z,4.31
2023-01-09T21:47:27.445Z,4.29
2023-01-09T21:49:59.208Z,4.33
2023-01-09T21:52:28.059Z,4.33
2023-01-09T21:54:57.947Z,4.29
2023-01-09T21:57:29.452Z,4.29
2023-01-09T22:00:01.152Z,4.32
2023-01-09T22:02:30.003Z,4.33
2023-01-09T22:05:01.476Z,4.29
2023-01-09T22:07:30.123Z,4.32
2023-01-09T22:09:59.109Z,4.32
2023-01-09T22:12:27.614Z,4.31
2023-01-09T22:14:56.234Z,4.33
2023-01-09T22:17:26.335Z,4.33
2023-01-09T22:19:55.045Z,4.37
2023-01-09T22:22:53.757Z,4.38
2023-01-09T22:25:23.887Z,4.41
2023-01-09T22:27:52.718Z,4.39
2023-01-09T22:30:21.698Z,4.42
2023-01-09T22:32:51.912Z,4.41
2023-01-09T22:35:20.696Z,4.42
2023-01-09T22:37:49.533Z,4.42
2023-01-09T22:40:19.421Z,4.36
2023-01-09T22:42:48.229Z,4.31
2023-01-09T22:45:16.947Z,4.31
2023-01-09T22:47:45.952Z,4.33
2023-01-09T22:50:16.407Z,4.33
2023-01-09T22:52:45.297Z,4.18
2023-01-09T22:55:14.248Z,4.31
2023-01-09T22:57:43.560Z,4.31
2023-01-09T23:00:13.753Z,4.31
2023-01-09T23:02:42.417Z,3.79
2023-01-09T23:05:11.419Z,4.29
2023-01-09T23:07:46.401Z,4.31
2023-01-09T23:10:16.815Z,4.25
2023-01-09T23:12:48.720Z,4.28
2023-01-09T23:15:17.422Z,4.32
2023-01-09T23:17:46.550Z,4.28
2023-01-09T23:20:15.232Z,4.30
2023-01-09T23:22:43.866Z,4.27
2023-01-09T23:25:15.917Z,4.30
2023-01-09T23:27:45.462Z,4.25
2023-01-09T23:30:14.667Z,4.27
2023-01-09T23:32:44.415Z,4.28
2023-01-09T23:35:13.374Z,4.29
2023-01-09T23:37:41.792Z,4.26
2023-01-09T23:40:12.834Z,4.26
2023-01-09T23:43:00.500Z,4.25
2023-01-09T23:45:29.163Z,4.30
2023-01-09T23:47:57.940Z,4.31
2023-01-09T23:50:26.411Z,4.36
2023-01-09T23:52:55.080Z,4.34
2023-01-09T23:55:23.792Z,4.39
2023-01-09T23:57:55.919Z,4.35
